My Meet Scores
Gialani Hernandez, Gymnastics and Cheerleading Academy CT - MyMeetScores.com
Top100 | Top Teams | Upcoming Meets | Completed Meets | Latest | Add Scores | Help| Support | Bookmark and Share

Gialani Hernandez, Gymnastics and Cheerleading Academy CT
Personal Bests
LevelVault BarsBeamFloorAA
39.3008.300 9.1009.10035.225
49.0008.700 9.0009.32535.350
59.2508.875 8.5009.22535.550
68.9259.525 9.1509.37536.075
Meet Scores
Date Meet Team Session Level Division Vault Bars Beam Floor AA
2020-02-15 Chelsea Piers Winter Challenge Gymnastics and Cheerleading Academy CT C1 6 Younger 8.800 6 9.000 3 8.875 4 9.100 2T 35.775 2
2020-01-31 Friendship Classic 2020 Gymnastics and Cheerleading Academy CT 06 6 Besties 8.750 5 8.800 5T 9.150 4 9.375 2T 36.075 4
2020-01-17 Crimson Classic 2020 Gymnastics and Cheerleading Academy CT 1A 6 A 8.925 3 8.900 1 8.000 8 9.300 3 35.125 3
2020-01-10 Little Boston Invitational Gymnastics and Cheerleading Academy CT B03 6 INT 8.750 6 9.525 1 8.375 9 9.250 3T 35.900 4
2019-12-06 Rhode Island Invitational Gymnastics and Cheerleading Academy CT SU3 6 child 8.575 10 9.100 1 8.800 8 9.225 6 35.700 5
2019-11-09 2019 PHS Turkey Tumble Gymnastics and Cheerleading Academy CT 3 6 Jr A 8.350 4 8.650 2T 8.900 6 8.800 5 34.700 1
2019-02-01 State Level 4&5 Gymnastics and Cheerleading Academy CT 6 5 8 9 yrs 9.250 7T 8.875 9 8.225 25 9.200 11T 35.550 14
2019-01-25 Kinetic Kids Invitational 2019 Gymnastics and Cheerleading Academy CT 2 5 Younger 8.450 10 8.700 2 8.500 7 8.325 6T 33.975 4
2019-01-18 DGS Northeast Invite Gymnastics and Cheerleading Academy CT 5A 5 Ch A 8.700 5 8.600 1 7.650 8 8.800 2T 33.750 4T
2019-01-11 2019 New Years Blast Gymnastics and Cheerleading Academy CT 3 5 Junior 8.850 5 8.650 4 8.250 8 9.225 1 34.975 4
2018-11-30 Rhode Island Invitational Gymnastics and Cheerleading Academy CT SU3 5 Child 8.600 5 8.800 3 8.500 7T 8.850 4 34.750 3
2018-11-17 2018 Connecticut Judge's Cup Gymnastics and Cheerleading Academy CT 5 5 8-10 yrs. 8.600 25T 7.975 22 7.700 52 8.600 37T 32.875 33
2018-11-10 2018 Turkey Tumble Gymnastics and Cheerleading Academy CT 3 5 Younger 9.125 3 7.500 4T 7.750 6 8.300 5 32.675 6
2018-02-03 Level 4 & 5 States Gymnastics and Cheerleading Academy CT 1 4 Jr. B 8.925 13 8.050 37T 8.750 41 8.925 20 34.650 23
2018-01-26 2018 American Invitational Gymnastics and Cheerleading Academy CT 12B 4 Youth 9.000 4 8.600 11 7.825 19 9.325 8 34.750 14
2018-01-19 Kinetic Kids Invitational Gymnastics and Cheerleading Academy CT 2 4 Jr A 8.900 5 8.700 7 9.000 3 8.750 5 35.350 5
2017-11-30 Rhode Island Invitational Gymnastics and Cheerleading Academy CT SS1 4 Child 7.950 6 8.350 4T 8.700 5T 9.000 4 34.000 4
2017-11-10 2017 Phs Turkey Tumble Gymnastics and Cheerleading Academy CT 1 4 Jr A 8.950 5 7.200 10 7.750 10 8.500 7T 32.400 10
2017-03-25 2017 Connecticut Level 3 State Cup Gymnastics and Cheerleading Academy CT 1 3 N/A 9.300 17T 8.200 40T 8.725 38 9.000 14T 35.225 28T
2017-01-27 24th Annual American Invitational Gymnastics and Cheerleading Academy CT 5A 3 Child 9.025 11T 8.300 11 8.575 7 9.100 5T 35.000 6T
2016-12-02 Rhode Island Invitational Gymnastics and Cheerleading Academy CT WS1 3 Child 9.250 2 8.250 1 9.100 1 8.550 4 35.150 1
2016-11-18 2016 Muriel Grossfeld Invitational Gymnastics and Cheerleading Academy CT 5 3 Jr A 8.950 2 6.750 11T 7.500 13 8.850 2T 32.050 11
Get your scores on
a t-shirt, pin, or hoodie

www.lazysuits.com